sensor_id;sensor_type;location;lat;lon;timestamp;temperature;humidity
64599;SHT31;51008;51.504;11.548;2022-10-19T00:03:11;8.34;96.90
64599;SHT31;51008;51.504;11.548;2022-10-19T00:08:12;8.37;97.05
64599;SHT31;51008;51.504;11.548;2022-10-19T00:13:13;8.38;97.19
64599;SHT31;51008;51.504;11.548;2022-10-19T00:18:14;8.31;97.10
64599;SHT31;51008;51.504;11.548;2022-10-19T00:23:15;8.28;97.18
64599;SHT31;51008;51.504;11.548;2022-10-19T00:28:16;8.28;97.22
64599;SHT31;51008;51.504;11.548;2022-10-19T00:33:18;8.19;97.17
64599;SHT31;51008;51.504;11.548;2022-10-19T00:38:19;8.14;97.35
64599;SHT31;51008;51.504;11.548;2022-10-19T00:43:22;8.14;97.52
64599;SHT31;51008;51.504;11.548;2022-10-19T00:48:27;8.10;97.80
64599;SHT31;51008;51.504;11.548;2022-10-19T00:53:29;8.03;97.56
64599;SHT31;51008;51.504;11.548;2022-10-19T00:58:31;8.03;97.92
64599;SHT31;51008;51.504;11.548;2022-10-19T01:03:33;7.99;97.90
64599;SHT31;51008;51.504;11.548;2022-10-19T01:08:34;7.94;98.00
64599;SHT31;51008;51.504;11.548;2022-10-19T01:13:51;7.94;98.07
64599;SHT31;51008;51.504;11.548;2022-10-19T01:50:43;7.54;97.88
64599;SHT31;51008;51.504;11.548;2022-10-19T01:55:48;7.48;97.81
64599;SHT31;51008;51.504;11.548;2022-10-19T02:00:51;7.40;97.66
64599;SHT31;51008;51.504;11.548;2022-10-19T02:05:53;7.35;97.85
64599;SHT31;51008;51.504;11.548;2022-10-19T02:10:57;7.28;97.66
64599;SHT31;51008;51.504;11.548;2022-10-19T02:16:00;7.19;97.47
64599;SHT31;51008;51.504;11.548;2022-10-19T02:21:03;7.17;97.65
64599;SHT31;51008;51.504;11.548;2022-10-19T02:26:05;7.14;97.76
64599;SHT31;51008;51.504;11.548;2022-10-19T02:31:07;7.10;97.93
64599;SHT31;51008;51.504;11.548;2022-10-19T02:36:08;7.09;97.96
64599;SHT31;51008;51.504;11.548;2022-10-19T02:46:42;7.00;98.07
64599;SHT31;51008;51.504;11.548;2022-10-19T02:51:59;6.92;97.92
64599;SHT31;51008;51.504;11.548;2022-10-19T02:57:02;6.91;98.13
64599;SHT31;51008;51.504;11.548;2022-10-19T03:02:04;6.88;98.21
64599;SHT31;51008;51.504;11.548;2022-10-19T03:07:05;6.86;98.50
64599;SHT31;51008;51.504;11.548;2022-10-19T03:12:06;6.88;98.70
64599;SHT31;51008;51.504;11.548;2022-10-19T03:17:07;6.93;98.71
64599;SHT31;51008;51.504;11.548;2022-10-19T03:22:08;6.99;98.92
64599;SHT31;51008;51.504;11.548;2022-10-19T03:27:09;6.92;98.47
64599;SHT31;51008;51.504;11.548;2022-10-19T03:32:10;6.85;98.30
64599;SHT31;51008;51.504;11.548;2022-10-19T03:37:11;6.84;98.31
64599;SHT31;51008;51.504;11.548;2022-10-19T03:42:12;6.78;98.31
64599;SHT31;51008;51.504;11.548;2022-10-19T03:47:13;6.74;98.48
64599;SHT31;51008;51.504;11.548;2022-10-19T03:52:14;6.72;98.68
64599;SHT31;51008;51.504;11.548;2022-10-19T03:57:15;6.79;98.80
64599;SHT31;51008;51.504;11.548;2022-10-19T04:02:16;6.74;98.46
64599;SHT31;51008;51.504;11.548;2022-10-19T04:07:16;6.72;98.48
64599;SHT31;51008;51.504;11.548;2022-10-19T04:12:17;6.75;98.79
64599;SHT31;51008;51.504;11.548;2022-10-19T04:17:18;6.79;98.84
64599;SHT31;51008;51.504;11.548;2022-10-19T04:22:19;6.79;98.77
64599;SHT31;51008;51.504;11.548;2022-10-19T04:27:20;6.72;98.51
64599;SHT31;51008;51.504;11.548;2022-10-19T04:32:21;6.69;98.30
64599;SHT31;51008;51.504;11.548;2022-10-19T04:37:22;6.64;98.33
64599;SHT31;51008;51.504;11.548;2022-10-19T04:42:23;6.67;98.66
64599;SHT31;51008;51.504;11.548;2022-10-19T04:47:24;6.77;98.84
64599;SHT31;51008;51.504;11.548;2022-10-19T04:52:25;7.00;98.84
64599;SHT31;51008;51.504;11.548;2022-10-19T04:57:26;7.07;98.46
64599;SHT31;51008;51.504;11.548;2022-10-19T05:02:28;7.05;97.83
64599;SHT31;51008;51.504;11.548;2022-10-19T05:07:29;6.97;97.44
64599;SHT31;51008;51.504;11.548;2022-10-19T05:12:30;6.88;97.45
64599;SHT31;51008;51.504;11.548;2022-10-19T05:17:31;6.92;97.90
64599;SHT31;51008;51.504;11.548;2022-10-19T05:22:32;7.03;98.38
64599;SHT31;51008;51.504;11.548;2022-10-19T05:27:33;7.20;98.43
64599;SHT31;51008;51.504;11.548;2022-10-19T05:32:34;7.28;98.62
64599;SHT31;51008;51.504;11.548;2022-10-19T05:37:35;7.41;98.66
64599;SHT31;51008;51.504;11.548;2022-10-19T05:42:36;7.54;98.23
64599;SHT31;51008;51.504;11.548;2022-10-19T05:47:37;7.62;97.92
64599;SHT31;51008;51.504;11.548;2022-10-19T05:52:38;7.79;97.56
64599;SHT31;51008;51.504;11.548;2022-10-19T05:57:39;7.83;97.42
64599;SHT31;51008;51.504;11.548;2022-10-19T06:02:40;7.92;97.17
64599;SHT31;51008;51.504;11.548;2022-10-19T06:07:41;8.06;97.17
64599;SHT31;51008;51.504;11.548;2022-10-19T06:12:42;8.19;97.43
64599;SHT31;51008;51.504;11.548;2022-10-19T06:17:43;8.26;97.70
64599;SHT31;51008;51.504;11.548;2022-10-19T06:22:44;8.36;97.57
64599;SHT31;51008;51.504;11.548;2022-10-19T06:27:46;8.47;97.71
64599;SHT31;51008;51.504;11.548;2022-10-19T06:32:47;8.59;97.59
64599;SHT31;51008;51.504;11.548;2022-10-19T06:37:48;8.72;97.58
64599;SHT31;51008;51.504;11.548;2022-10-19T06:42:49;8.89;97.72
64599;SHT31;51008;51.504;11.548;2022-10-19T06:47:50;9.03;97.68
64599;SHT31;51008;51.504;11.548;2022-10-19T06:52:51;9.14;96.96
64599;SHT31;51008;51.504;11.548;2022-10-19T06:57:52;9.31;97.34
64599;SHT31;51008;51.504;11.548;2022-10-19T07:02:53;9.44;97.40
64599;SHT31;51008;51.504;11.548;2022-10-19T07:07:56;9.48;97.25
64599;SHT31;51008;51.504;11.548;2022-10-19T07:12:57;9.55;96.83
64599;SHT31;51008;51.504;11.548;2022-10-19T07:17:58;9.59;96.74
64599;SHT31;51008;51.504;11.548;2022-10-19T07:22:59;9.61;96.76
64599;SHT31;51008;51.504;11.548;2022-10-19T07:28:00;9.73;97.02
64599;SHT31;51008;51.504;11.548;2022-10-19T07:33:01;9.86;97.09
64599;SHT31;51008;51.504;11.548;2022-10-19T07:38:02;9.93;96.62
64599;SHT31;51008;51.504;11.548;2022-10-19T07:43:03;9.97;95.75
64599;SHT31;51008;51.504;11.548;2022-10-19T07:48:04;9.96;95.73
64599;SHT31;51008;51.504;11.548;2022-10-19T07:53:05;9.98;95.26
64599;SHT31;51008;51.504;11.548;2022-10-19T07:58:07;10.07;95.23
64599;SHT31;51008;51.504;11.548;2022-10-19T08:03:08;10.15;94.77
64599;SHT31;51008;51.504;11.548;2022-10-19T08:08:09;10.31;95.28
64599;SHT31;51008;51.504;11.548;2022-10-19T08:13:12;10.39;95.19
64599;SHT31;51008;51.504;11.548;2022-10-19T08:18:13;10.46;94.70
64599;SHT31;51008;51.504;11.548;2022-10-19T08:23:15;10.52;94.23
64599;SHT31;51008;51.504;11.548;2022-10-19T08:28:16;10.58;93.19
64599;SHT31;51008;51.504;11.548;2022-10-19T08:33:17;10.67;93.61
64599;SHT31;51008;51.504;11.548;2022-10-19T08:38:18;10.81;93.56
64599;SHT31;51008;51.504;11.548;2022-10-19T08:43:33;10.94;92.70
64599;SHT31;51008;51.504;11.548;2022-10-19T08:48:37;11.04;91.75
64599;SHT31;51008;51.504;11.548;2022-10-19T08:53:44;11.18;91.79
64599;SHT31;51008;51.504;11.548;2022-10-19T08:59:05;11.14;89.54
64599;SHT31;51008;51.504;11.548;2022-10-19T09:04:23;11.22;89.57
64599;SHT31;51008;51.504;11.548;2022-10-19T09:09:27;11.34;89.79
64599;SHT31;51008;51.504;11.548;2022-10-19T09:14:39;11.38;84.65
64599;SHT31;51008;51.504;11.548;2022-10-19T09:19:40;11.39;82.38
64599;SHT31;51008;51.504;11.548;2022-10-19T09:24:53;11.55;83.43
64599;SHT31;51008;51.504;11.548;2022-10-19T09:30:05;11.65;80.74
64599;SHT31;51008;51.504;11.548;2022-10-19T09:35:50;11.80;81.52
64599;SHT31;51008;51.504;11.548;2022-10-19T09:40:44;11.69;79.52
64599;SHT31;51008;51.504;11.548;2022-10-19T09:50:57;11.86;77.98
64599;SHT31;51008;51.504;11.548;2022-10-19T09:56:04;11.91;76.53
64599;SHT31;51008;51.504;11.548;2022-10-19T10:01:05;11.94;75.78
64599;SHT31;51008;51.504;11.548;2022-10-19T10:06:14;11.91;74.70
64599;SHT31;51008;51.504;11.548;2022-10-19T10:11:41;12.00;76.44
64599;SHT31;51008;51.504;11.548;2022-10-19T10:16:43;12.18;74.89
64599;SHT31;51008;51.504;11.548;2022-10-19T10:21:50;12.22;75.16
64599;SHT31;51008;51.504;11.548;2022-10-19T10:26:59;12.20;74.03
64599;SHT31;51008;51.504;11.548;2022-10-19T10:32:03;12.31;73.69
64599;SHT31;51008;51.504;11.548;2022-10-19T10:37:07;12.42;73.69
64599;SHT31;51008;51.504;11.548;2022-10-19T10:42:16;12.42;71.24
64599;SHT31;51008;51.504;11.548;2022-10-19T10:47:19;12.69;74.66
64599;SHT31;51008;51.504;11.548;2022-10-19T10:52:21;13.01;71.81
64599;SHT31;51008;51.504;11.548;2022-10-19T10:57:22;13.31;70.10
64599;SHT31;51008;51.504;11.548;2022-10-19T11:02:51;13.42;69.73
64599;SHT31;51008;51.504;11.548;2022-10-19T11:08:17;13.39;70.34
64599;SHT31;51008;51.504;11.548;2022-10-19T11:13:27;13.34;71.00
64599;SHT31;51008;51.504;11.548;2022-10-19T11:18:51;13.11;70.55
64599;SHT31;51008;51.504;11.548;2022-10-19T11:24:30;13.15;67.87
64599;SHT31;51008;51.504;11.548;2022-10-19T11:30:01;13.25;65.77
64599;SHT31;51008;51.504;11.548;2022-10-19T11:35:23;13.80;65.21
64599;SHT31;51008;51.504;11.548;2022-10-19T11:40:39;13.81;67.56
64599;SHT31;51008;51.504;11.548;2022-10-19T11:50:52;13.73;69.23
64599;SHT31;51008;51.504;11.548;2022-10-19T11:56:06;13.63;68.10
64599;SHT31;51008;51.504;11.548;2022-10-19T12:01:20;13.48;68.98
64599;SHT31;51008;51.504;11.548;2022-10-19T12:06:44;13.60;67.53
64599;SHT31;51008;51.504;11.548;2022-10-19T12:17:04;13.65;69.23
64599;SHT31;51008;51.504;11.548;2022-10-19T12:22:13;13.50;69.19
64599;SHT31;51008;51.504;11.548;2022-10-19T12:27:17;13.15;68.53
64599;SHT31;51008;51.504;11.548;2022-10-19T12:32:23;13.16;70.89
64599;SHT31;51008;51.504;11.548;2022-10-19T12:37:46;13.18;67.43
64599;SHT31;51008;51.504;11.548;2022-10-19T12:53:22;13.12;69.64
64599;SHT31;51008;51.504;11.548;2022-10-19T12:58:24;13.16;69.26
64599;SHT31;51008;51.504;11.548;2022-10-19T13:03:38;13.07;69.91
64599;SHT31;51008;51.504;11.548;2022-10-19T13:08:54;12.84;71.31
64599;SHT31;51008;51.504;11.548;2022-10-19T13:29:26;12.59;71.15
64599;SHT31;51008;51.504;11.548;2022-10-19T13:34:27;12.59;70.41
64599;SHT31;51008;51.504;11.548;2022-10-19T13:39:29;12.62;68.65
64599;SHT31;51008;51.504;11.548;2022-10-19T13:44:33;12.63;71.47
64599;SHT31;51008;51.504;11.548;2022-10-19T14:10:38;12.52;71.35
64599;SHT31;51008;51.504;11.548;2022-10-19T14:15:52;12.63;71.79
64599;SHT31;51008;51.504;11.548;2022-10-19T14:20:57;12.49;69.72
64599;SHT31;51008;51.504;11.548;2022-10-19T14:26:19;12.36;70.79
64599;SHT31;51008;51.504;11.548;2022-10-19T14:31:24;12.31;71.79
64599;SHT31;51008;51.504;11.548;2022-10-19T14:36:32;12.28;71.77
64599;SHT31;51008;51.504;11.548;2022-10-19T14:41:35;12.11;71.87
64599;SHT31;51008;51.504;11.548;2022-10-19T14:46:36;12.13;70.15
64599;SHT31;51008;51.504;11.548;2022-10-19T14:52:03;11.91;70.57
64599;SHT31;51008;51.504;11.548;2022-10-19T14:57:29;11.69;72.60
64599;SHT31;51008;51.504;11.548;2022-10-19T15:07:40;11.67;75.47
64599;SHT31;51008;51.504;11.548;2022-10-19T15:12:42;11.63;72.88
64599;SHT31;51008;51.504;11.548;2022-10-19T15:22:53;11.51;74.96
64599;SHT31;51008;51.504;11.548;2022-10-19T15:27:54;11.25;73.62
64599;SHT31;51008;51.504;11.548;2022-10-19T15:38:12;11.22;75.81
64599;SHT31;51008;51.504;11.548;2022-10-19T15:53:41;10.92;77.23
64599;SHT31;51008;51.504;11.548;2022-10-19T15:58:42;10.93;77.86
64599;SHT31;51008;51.504;11.548;2022-10-19T16:03:44;10.80;76.83
64599;SHT31;51008;51.504;11.548;2022-10-19T16:08:46;10.76;76.04
64599;SHT31;51008;51.504;11.548;2022-10-19T16:13:47;10.75;76.92
64599;SHT31;51008;51.504;11.548;2022-10-19T16:18:48;10.69;76.66
64599;SHT31;51008;51.504;11.548;2022-10-19T16:23:49;10.62;76.30
64599;SHT31;51008;51.504;11.548;2022-10-19T16:28:50;10.45;75.21
64599;SHT31;51008;51.504;11.548;2022-10-19T16:33:51;10.41;76.45
64599;SHT31;51008;51.504;11.548;2022-10-19T16:38:52;10.44;76.28
64599;SHT31;51008;51.504;11.548;2022-10-19T16:43:54;10.31;73.76
64599;SHT31;51008;51.504;11.548;2022-10-19T16:48:55;10.31;75.92
64599;SHT31;51008;51.504;11.548;2022-10-19T16:53:56;10.32;76.81
64599;SHT31;51008;51.504;11.548;2022-10-19T16:59:02;10.31;76.01
64599;SHT31;51008;51.504;11.548;2022-10-19T17:04:04;10.31;76.95
64599;SHT31;51008;51.504;11.548;2022-10-19T17:09:05;10.32;76.48
64599;SHT31;51008;51.504;11.548;2022-10-19T17:14:10;10.24;76.24
64599;SHT31;51008;51.504;11.548;2022-10-19T17:19:11;10.20;75.99
64599;SHT31;51008;51.504;11.548;2022-10-19T17:24:14;10.14;76.91
64599;SHT31;51008;51.504;11.548;2022-10-19T17:29:16;10.11;77.02
64599;SHT31;51008;51.504;11.548;2022-10-19T17:34:19;10.06;77.14
64599;SHT31;51008;51.504;11.548;2022-10-19T17:39:21;10.01;78.10
64599;SHT31;51008;51.504;11.548;2022-10-19T17:44:23;9.90;77.60
64599;SHT31;51008;51.504;11.548;2022-10-19T17:49:24;9.72;77.39
64599;SHT31;51008;51.504;11.548;2022-10-19T17:54:25;9.59;76.66
64599;SHT31;51008;51.504;11.548;2022-10-19T17:59:26;9.35;78.15
64599;SHT31;51008;51.504;11.548;2022-10-19T18:04:27;9.27;78.88
64599;SHT31;51008;51.504;11.548;2022-10-19T18:09:28;9.23;79.16
64599;SHT31;51008;51.504;11.548;2022-10-19T18:14:29;9.04;80.12
64599;SHT31;51008;51.504;11.548;2022-10-19T18:19:30;8.94;79.79
64599;SHT31;51008;51.504;11.548;2022-10-19T18:24:31;8.66;81.79
64599;SHT31;51008;51.504;11.548;2022-10-19T18:29:32;8.49;82.29
64599;SHT31;51008;51.504;11.548;2022-10-19T18:34:33;8.41;82.69
64599;SHT31;51008;51.504;11.548;2022-10-19T18:39:34;8.26;83.00
64599;SHT31;51008;51.504;11.548;2022-10-19T18:44:35;8.09;83.24
64599;SHT31;51008;51.504;11.548;2022-10-19T18:49:36;8.04;82.94
64599;SHT31;51008;51.504;11.548;2022-10-19T18:54:37;7.96;83.32
64599;SHT31;51008;51.504;11.548;2022-10-19T18:59:38;7.86;83.50
64599;SHT31;51008;51.504;11.548;2022-10-19T19:04:39;7.79;83.79
64599;SHT31;51008;51.504;11.548;2022-10-19T19:09:43;7.69;83.94
64599;SHT31;51008;51.504;11.548;2022-10-19T19:14:44;7.52;83.88
64599;SHT31;51008;51.504;11.548;2022-10-19T19:19:45;7.35;83.95
64599;SHT31;51008;51.504;11.548;2022-10-19T19:24:48;7.27;85.23
64599;SHT31;51008;51.504;11.548;2022-10-19T19:29:53;7.12;84.79
64599;SHT31;51008;51.504;11.548;2022-10-19T19:34:54;6.97;85.19
64599;SHT31;51008;51.504;11.548;2022-10-19T19:39:55;6.82;85.21
64599;SHT31;51008;51.504;11.548;2022-10-19T19:44:56;6.63;85.64
64599;SHT31;51008;51.504;11.548;2022-10-19T19:49:57;6.44;86.01
64599;SHT31;51008;51.504;11.548;2022-10-19T19:54:58;6.34;86.57
64599;SHT31;51008;51.504;11.548;2022-10-19T19:59:59;6.22;86.55
64599;SHT31;51008;51.504;11.548;2022-10-19T20:05:00;6.09;86.74
64599;SHT31;51008;51.504;11.548;2022-10-19T20:10:01;6.05;87.05
64599;SHT31;51008;51.504;11.548;2022-10-19T20:15:02;5.89;86.76
64599;SHT31;51008;51.504;11.548;2022-10-19T20:20:04;5.82;88.16
64599;SHT31;51008;51.504;11.548;2022-10-19T20:25:05;5.79;87.70
64599;SHT31;51008;51.504;11.548;2022-10-19T20:30:09;5.65;87.68
64599;SHT31;51008;51.504;11.548;2022-10-19T20:35:10;5.64;88.09
64599;SHT31;51008;51.504;11.548;2022-10-19T20:40:11;5.55;88.08
64599;SHT31;51008;51.504;11.548;2022-10-19T20:45:12;5.35;88.23
64599;SHT31;51008;51.504;11.548;2022-10-19T20:50:13;5.26;88.82
64599;SHT31;51008;51.504;11.548;2022-10-19T20:55:14;5.25;89.31
64599;SHT31;51008;51.504;11.548;2022-10-19T21:00:15;5.27;89.61
64599;SHT31;51008;51.504;11.548;2022-10-19T21:05:16;5.15;89.54
64599;SHT31;51008;51.504;11.548;2022-10-19T21:10:17;5.15;89.95
64599;SHT31;51008;51.504;11.548;2022-10-19T21:15:18;5.12;89.85
64599;SHT31;51008;51.504;11.548;2022-10-19T21:20:19;5.02;89.84
64599;SHT31;51008;51.504;11.548;2022-10-19T21:25:21;4.99;90.25
64599;SHT31;51008;51.504;11.548;2022-10-19T21:30:22;4.83;89.86
64599;SHT31;51008;51.504;11.548;2022-10-19T21:35:23;4.75;90.53
64599;SHT31;51008;51.504;11.548;2022-10-19T21:40:25;4.71;90.05
64599;SHT31;51008;51.504;11.548;2022-10-19T21:45:26;4.68;90.41
64599;SHT31;51008;51.504;11.548;2022-10-19T21:50:27;4.64;90.50
64599;SHT31;51008;51.504;11.548;2022-10-19T21:55:32;4.56;90.08
64599;SHT31;51008;51.504;11.548;2022-10-19T22:00:33;4.38;90.09
64599;SHT31;51008;51.504;11.548;2022-10-19T22:05:34;4.25;90.43
64599;SHT31;51008;51.504;11.548;2022-10-19T22:10:36;4.23;90.80
64599;SHT31;51008;51.504;11.548;2022-10-19T22:15:38;4.29;91.51
64599;SHT31;51008;51.504;11.548;2022-10-19T22:20:39;4.13;91.26
64599;SHT31;51008;51.504;11.548;2022-10-19T22:25:40;4.02;91.78
64599;SHT31;51008;51.504;11.548;2022-10-19T22:30:41;3.93;91.96
64599;SHT31;51008;51.504;11.548;2022-10-19T22:35:51;3.90;91.90
64599;SHT31;51008;51.504;11.548;2022-10-19T22:40:52;3.85;92.03
64599;SHT31;51008;51.504;11.548;2022-10-19T22:45:53;3.88;92.32
64599;SHT31;51008;51.504;11.548;2022-10-19T22:50:55;3.93;92.80
64599;SHT31;51008;51.504;11.548;2022-10-19T22:55:56;3.87;92.22
64599;SHT31;51008;51.504;11.548;2022-10-19T23:01:06;3.88;92.63
64599;SHT31;51008;51.504;11.548;2022-10-19T23:06:09;3.87;92.24
64599;SHT31;51008;51.504;11.548;2022-10-19T23:11:11;3.70;92.03
64599;SHT31;51008;51.504;11.548;2022-10-19T23:16:12;3.69;92.44
64599;SHT31;51008;51.504;11.548;2022-10-19T23:21:15;3.63;92.55
64599;SHT31;51008;51.504;11.548;2022-10-19T23:26:18;3.56;92.91
64599;SHT31;51008;51.504;11.548;2022-10-19T23:31:24;3.64;93.76
64599;SHT31;51008;51.504;11.548;2022-10-19T23:36:26;3.64;93.72
64599;SHT31;51008;51.504;11.548;2022-10-19T23:41:28;3.58;93.13
64599;SHT31;51008;51.504;11.548;2022-10-19T23:46:29;3.46;93.26
64599;SHT31;51008;51.504;11.548;2022-10-19T23:51:30;3.44;93.51
64599;SHT31;51008;51.504;11.548;2022-10-19T23:56:32;3.49;93.90
